Purchase, NY (10577)

12:23 AM EST on February 27, 2015 (GMT -0500)
Kendall Sculpture Gardens | Change Station
CLOSE
Current Station
Personal Weather Station
Location: Purchase, NY
Elevation: 272 ft
Nearby Weather Stations

Elev 272 ft 41.04 °N, 73.70 °W | Updated 26 seconds ago

Scattered Clouds
Scattered Clouds
17.3 °F
Feels Like 9 °F
N
6.0
Wind Variable Wind from NW
Gusts 6.0 mph

Today
High -- | Low -- °F
--% Chance of Precip.
Yesterday
High -- | Low -- °F
Precip. -- in
6:32 AM 5:43 PM
Waxing Gibbous, 65% visible
Pressure 30.16 in
Visibility 10.0 miles
Clouds Scattered Clouds 2700 ft
Windchill 9 °F
Dew Point 2 °F
Humidity 50%
Rainfall 0.00 in
Snow Depth Not available.
UV 0 out of 12
Pollen .40 out of 12
Air Quality Not available.
Flu Activity Not available.
METAR KHPN 270456Z 32008KT 10SM SCT027 M08/M16 A3012 RMK AO2 SLP213 T10831156 410391089

More Conditions Fewer Conditions

Pressure 30.16 in
Visibility 10.0 miles
Clouds Scattered Clouds 2700 ft
Windchill 9 °F
Dew Point 2 °F
Humidity 50%
Rainfall 0.00 in
Snow Depth Not available.
UV 0 out of 12
Pollen .40 out of 12
Air Quality Not available.
Flu Activity Not available.
METAR KHPN 270456Z 32008KT 10SM SCT027 M08/M16 A3012 RMK AO2 SLP213 T10831156 410391089

More Conditions Fewer Conditions

10-Day Weather Forecast

Almanac

Astronomy

Feb. 27, 2015 Rise Set
Actual Time
Civil Twilight
Nautical Twilight
Astronomical Twilight
Moon
Length of Visible Light
Length of Day
Tomorrow will be .
, % of the Moon is Illuminated

Today's Extremes

State Highs State Lows

Community

WunderPhotos

Upload Photos

1,800,638 photos uploaded!

WunderBlogs® & News

Nearby

Air Quality

  Air Quality AQ Index Pollutant
Not available.

Snow Depth

Station Depth Elevation

Earthquake Activity

City Distance Mag. Time & Date
Minimum magnitude displayed is 2.5.

Coastal Water Temperatures

Place Temperature

Nearby Weather Stations